This is the latest recevied weather packets stored in our database for station/object XE1E-15. If no packets are shown the sender has not sent any weather packets the latest 10 day(s).
| Time | Temp. | Humidity | Pressure | Rain* | Wind** | Luminosity | Snow |
|---|---|---|---|---|---|---|---|
| 1788678482 | 20° C | 100% | 1024.9 hPa | - | - | - | - |
| 1788676083 | 20.56° C | 100% | 1025.2 hPa | - | - | - | - |
| 1788673205 | 20.56° C | 100% | 1025.3 hPa | - | - | - | - |
| 1788672243 | 20.56° C | 100% | 1025.4 hPa | - | - | - | - |
| 1788671282 | 21.11° C | 100% | 1025.6 hPa | - | - | - | - |
| 1788670322 | 20.56° C | 100% | 1025.9 hPa | - | - | - | - |
| 1788669362 | 20.56° C | 100% | 1026.2 hPa | - | - | - | - |
| 1788668402 | 20.56° C | 100% | 1026 hPa | - | - | - | - |
| 1788667442 | 20.56° C | 100% | 1025.9 hPa | - | - | - | - |
| 1788666486 | 21.11° C | 100% | 1025.7 hPa | - | - | - | - |
| 1788665521 | 20° C | 100% | 1025.6 hPa | - | - | - | - |
| 1788664561 | 20° C | 100% | 1025.1 hPa | - | - | - | - |
| 1788663601 | 21.11° C | 100% | 1024.4 hPa | - | - | - | - |
| 1788662641 | 21.11° C | 100% | 1024.2 hPa | - | - | - | - |
| 1788661681 | 21.11° C | 100% | 1024.2 hPa | - | - | - | - |
| 1788660721 | 21.11° C | 100% | 1024.3 hPa | - | - | - | - |
| 1788657841 | 21.67° C | 100% | 1024.4 hPa | - | - | - | - |
| 1788655920 | 21.67° C | 100% | 1023.8 hPa | - | - | - | - |
| 1788654960 | 21.67° C | 100% | 1023.7 hPa | - | - | - | - |
| 1788654485 | 21.11° C | 100% | 1023.4 hPa | - | - | - | - |
| 1788653525 | 20.56° C | 100% | 1022.8 hPa | - | - | - | - |
| 1788648724 | 25° C | 65% | 1020.9 hPa | - | - | - | - |
| 1788646803 | 24.44° C | 59% | 1020.9 hPa | - | - | - | - |
| 1788643922 | 26.11° C | 43% | 1021 hPa | - | - | - | - |
| 1788641042 | 27.22° C | 45% | 1021.8 hPa | - | - | - | - |
* Rain since midnight (hover to see other rain measurements)
** Current wind speed in m/s (hover to see current wind gust speed)